sensor_id;sensor_type;location;lat;lon;timestamp;P1;durP1;ratioP1;P2;durP2;ratioP2
55210;SDS011;41082;52.822;6.666;2022-12-29T00:02:15;2.60;;;2.40;;
55210;SDS011;41082;52.822;6.666;2022-12-29T00:04:42;6.15;;;2.97;;
55210;SDS011;41082;52.822;6.666;2022-12-29T00:07:07;3.85;;;2.67;;
55210;SDS011;41082;52.822;6.666;2022-12-29T00:09:34;3.65;;;3.20;;
55210;SDS011;41082;52.822;6.666;2022-12-29T00:12:00;4.78;;;3.00;;
55210;SDS011;41082;52.822;6.666;2022-12-29T00:14:27;3.83;;;2.75;;
55210;SDS011;41082;52.822;6.666;2022-12-29T00:17:12;4.03;;;2.88;;
55210;SDS011;41082;52.822;6.666;2022-12-29T00:19:38;4.30;;;2.63;;
55210;SDS011;41082;52.822;6.666;2022-12-29T00:22:22;3.72;;;3.30;;
55210;SDS011;41082;52.822;6.666;2022-12-29T00:25:27;3.20;;;2.90;;
55210;SDS011;41082;52.822;6.666;2022-12-29T00:28:11;3.25;;;2.97;;
55210;SDS011;41082;52.822;6.666;2022-12-29T00:30:59;3.75;;;3.00;;
55210;SDS011;41082;52.822;6.666;2022-12-29T00:33:44;2.90;;;2.60;;
55210;SDS011;41082;52.822;6.666;2022-12-29T00:39:05;3.40;;;2.90;;
55210;SDS011;41082;52.822;6.666;2022-12-29T00:41:53;3.65;;;3.08;;
55210;SDS011;41082;52.822;6.666;2022-12-29T00:44:37;3.10;;;2.80;;
55210;SDS011;41082;52.822;6.666;2022-12-29T00:47:03;4.20;;;2.47;;
55210;SDS011;41082;52.822;6.666;2022-12-29T00:49:29;2.67;;;2.35;;
55210;SDS011;41082;52.822;6.666;2022-12-29T00:51:55;3.28;;;2.97;;
55210;SDS011;41082;52.822;6.666;2022-12-29T00:54:28;3.45;;;2.35;;
55210;SDS011;41082;52.822;6.666;2022-12-29T00:56:56;5.00;;;2.53;;
55210;SDS011;41082;52.822;6.666;2022-12-29T00:59:21;3.25;;;2.15;;
55210;SDS011;41082;52.822;6.666;2022-12-29T01:01:49;3.97;;;2.33;;
55210;SDS011;41082;52.822;6.666;2022-12-29T01:04:16;4.43;;;2.58;;
55210;SDS011;41082;52.822;6.666;2022-12-29T01:06:41;3.42;;;2.72;;
55210;SDS011;41082;52.822;6.666;2022-12-29T01:09:07;2.70;;;2.20;;
55210;SDS011;41082;52.822;6.666;2022-12-29T01:11:52;3.28;;;2.20;;
55210;SDS011;41082;52.822;6.666;2022-12-29T01:14:18;2.50;;;2.10;;
55210;SDS011;41082;52.822;6.666;2022-12-29T01:16:44;3.17;;;1.58;;
55210;SDS011;41082;52.822;6.666;2022-12-29T01:19:11;2.55;;;1.88;;
55210;SDS011;41082;52.822;6.666;2022-12-29T01:21:37;2.22;;;1.60;;
55210;SDS011;41082;52.822;6.666;2022-12-29T01:24:02;2.42;;;1.48;;
55210;SDS011;41082;52.822;6.666;2022-12-29T01:26:28;4.35;;;1.55;;
55210;SDS011;41082;52.822;6.666;2022-12-29T01:28:54;2.95;;;1.60;;
55210;SDS011;41082;52.822;6.666;2022-12-29T01:31:19;3.33;;;1.73;;
55210;SDS011;41082;52.822;6.666;2022-12-29T01:33:45;3.83;;;1.80;;
55210;SDS011;41082;52.822;6.666;2022-12-29T01:36:12;2.88;;;1.40;;
55210;SDS011;41082;52.822;6.666;2022-12-29T01:38:39;3.80;;;1.73;;
55210;SDS011;41082;52.822;6.666;2022-12-29T01:41:05;2.22;;;2.03;;
55210;SDS011;41082;52.822;6.666;2022-12-29T01:48:49;1.77;;;1.40;;
55210;SDS011;41082;52.822;6.666;2022-12-29T01:51:50;3.38;;;1.48;;
55210;SDS011;41082;52.822;6.666;2022-12-29T01:54:29;2.63;;;1.30;;
55210;SDS011;41082;52.822;6.666;2022-12-29T01:56:56;2.28;;;1.10;;
55210;SDS011;41082;52.822;6.666;2022-12-29T01:59:26;3.60;;;1.55;;
55210;SDS011;41082;52.822;6.666;2022-12-29T02:01:56;3.72;;;1.55;;
55210;SDS011;41082;52.822;6.666;2022-12-29T02:04:22;2.55;;;1.38;;
55210;SDS011;41082;52.822;6.666;2022-12-29T02:06:51;1.90;;;1.67;;
55210;SDS011;41082;52.822;6.666;2022-12-29T02:09:20;2.53;;;1.60;;
55210;SDS011;41082;52.822;6.666;2022-12-29T02:11:46;2.58;;;1.38;;
55210;SDS011;41082;52.822;6.666;2022-12-29T02:14:13;2.97;;;1.27;;
55210;SDS011;41082;52.822;6.666;2022-12-29T02:16:42;2.20;;;1.13;;
55210;SDS011;41082;52.822;6.666;2022-12-29T02:30:40;1.48;;;1.00;;
55210;SDS011;41082;52.822;6.666;2022-12-29T02:33:13;2.50;;;1.20;;
55210;SDS011;41082;52.822;6.666;2022-12-29T02:36:11;3.25;;;1.17;;
55210;SDS011;41082;52.822;6.666;2022-12-29T02:38:50;3.28;;;1.30;;
55210;SDS011;41082;52.822;6.666;2022-12-29T02:44:02;2.95;;;1.00;;
55210;SDS011;41082;52.822;6.666;2022-12-29T02:46:44;1.40;;;0.93;;
55210;SDS011;41082;52.822;6.666;2022-12-29T02:51:51;1.98;;;0.80;;
55210;SDS011;41082;52.822;6.666;2022-12-29T02:54:24;2.33;;;1.10;;
55210;SDS011;41082;52.822;6.666;2022-12-29T02:57:10;3.05;;;1.13;;
55210;SDS011;41082;52.822;6.666;2022-12-29T02:59:37;1.75;;;1.00;;
55210;SDS011;41082;52.822;6.666;2022-12-29T03:07:23;1.33;;;0.70;;
55210;SDS011;41082;52.822;6.666;2022-12-29T03:10:25;2.40;;;0.90;;
55210;SDS011;41082;52.822;6.666;2022-12-29T03:13:27;2.22;;;0.70;;
55210;SDS011;41082;52.822;6.666;2022-12-29T03:24:25;2.10;;;0.70;;
55210;SDS011;41082;52.822;6.666;2022-12-29T03:26:54;1.23;;;0.50;;
55210;SDS011;41082;52.822;6.666;2022-12-29T03:29:23;1.73;;;0.55;;
55210;SDS011;41082;52.822;6.666;2022-12-29T03:31:51;2.08;;;0.77;;
55210;SDS011;41082;52.822;6.666;2022-12-29T03:34:19;0.90;;;0.50;;
55210;SDS011;41082;52.822;6.666;2022-12-29T03:36:48;2.92;;;0.60;;
55210;SDS011;41082;52.822;6.666;2022-12-29T03:39:21;1.38;;;0.60;;
55210;SDS011;41082;52.822;6.666;2022-12-29T03:41:48;3.10;;;0.70;;
55210;SDS011;41082;52.822;6.666;2022-12-29T03:44:19;3.42;;;0.60;;
55210;SDS011;41082;52.822;6.666;2022-12-29T03:46:46;2.00;;;0.68;;
55210;SDS011;41082;52.822;6.666;2022-12-29T03:49:11;2.40;;;0.50;;
55210;SDS011;41082;52.822;6.666;2022-12-29T03:51:37;1.73;;;0.40;;
55210;SDS011;41082;52.822;6.666;2022-12-29T03:54:02;1.30;;;0.40;;
55210;SDS011;41082;52.822;6.666;2022-12-29T03:56:28;3.35;;;0.50;;
55210;SDS011;41082;52.822;6.666;2022-12-29T03:58:54;1.65;;;0.40;;
55210;SDS011;41082;52.822;6.666;2022-12-29T04:01:19;4.63;;;1.08;;
55210;SDS011;41082;52.822;6.666;2022-12-29T04:03:45;2.63;;;0.40;;
55210;SDS011;41082;52.822;6.666;2022-12-29T04:06:10;3.05;;;0.38;;
55210;SDS011;41082;52.822;6.666;2022-12-29T04:08:36;3.35;;;0.52;;
55210;SDS011;41082;52.822;6.666;2022-12-29T04:11:02;3.63;;;0.30;;
55210;SDS011;41082;52.822;6.666;2022-12-29T04:13:27;4.68;;;0.98;;
55210;SDS011;41082;52.822;6.666;2022-12-29T04:15:53;3.05;;;0.40;;
55210;SDS011;41082;52.822;6.666;2022-12-29T04:18:18;2.28;;;0.28;;
55210;SDS011;41082;52.822;6.666;2022-12-29T04:20:44;3.00;;;0.43;;
55210;SDS011;41082;52.822;6.666;2022-12-29T04:23:25;4.88;;;0.50;;
55210;SDS011;41082;52.822;6.666;2022-12-29T04:25:55;6.03;;;0.60;;
55210;SDS011;41082;52.822;6.666;2022-12-29T04:28:21;3.75;;;0.52;;
55210;SDS011;41082;52.822;6.666;2022-12-29T04:30:47;2.63;;;0.30;;
55210;SDS011;41082;52.822;6.666;2022-12-29T04:33:12;2.92;;;0.30;;
55210;SDS011;41082;52.822;6.666;2022-12-29T04:35:38;6.22;;;0.40;;
55210;SDS011;41082;52.822;6.666;2022-12-29T04:38:04;5.78;;;0.30;;
55210;SDS011;41082;52.822;6.666;2022-12-29T04:40:29;2.25;;;0.25;;
55210;SDS011;41082;52.822;6.666;2022-12-29T04:42:55;5.50;;;0.20;;
55210;SDS011;41082;52.822;6.666;2022-12-29T04:45:21;3.13;;;0.30;;
55210;SDS011;41082;52.822;6.666;2022-12-29T04:47:46;4.60;;;0.30;;
55210;SDS011;41082;52.822;6.666;2022-12-29T04:50:12;2.70;;;0.30;;
55210;SDS011;41082;52.822;6.666;2022-12-29T04:52:37;4.25;;;0.30;;
55210;SDS011;41082;52.822;6.666;2022-12-29T04:55:03;3.60;;;0.20;;
55210;SDS011;41082;52.822;6.666;2022-12-29T04:57:30;5.13;;;0.80;;
55210;SDS011;41082;52.822;6.666;2022-12-29T04:59:55;6.03;;;0.40;;
55210;SDS011;41082;52.822;6.666;2022-12-29T05:02:21;6.15;;;0.30;;
55210;SDS011;41082;52.822;6.666;2022-12-29T05:04:46;4.65;;;0.20;;
55210;SDS011;41082;52.822;6.666;2022-12-29T05:07:12;2.60;;;0.20;;
55210;SDS011;41082;52.822;6.666;2022-12-29T05:09:38;3.80;;;0.32;;
55210;SDS011;41082;52.822;6.666;2022-12-29T05:12:03;5.63;;;0.20;;
55210;SDS011;41082;52.822;6.666;2022-12-29T05:14:29;3.85;;;0.20;;
55210;SDS011;41082;52.822;6.666;2022-12-29T05:16:55;5.18;;;0.63;;
55210;SDS011;41082;52.822;6.666;2022-12-29T05:19:20;7.50;;;0.52;;
55210;SDS011;41082;52.822;6.666;2022-12-29T05:21:46;4.38;;;0.30;;
55210;SDS011;41082;52.822;6.666;2022-12-29T05:24:12;4.45;;;0.40;;
55210;SDS011;41082;52.822;6.666;2022-12-29T05:26:37;4.18;;;0.20;;
55210;SDS011;41082;52.822;6.666;2022-12-29T05:29:03;4.85;;;0.30;;
55210;SDS011;41082;52.822;6.666;2022-12-29T05:31:28;3.95;;;0.20;;
55210;SDS011;41082;52.822;6.666;2022-12-29T05:33:54;5.13;;;0.40;;
55210;SDS011;41082;52.822;6.666;2022-12-29T05:36:19;4.50;;;0.32;;
55210;SDS011;41082;52.822;6.666;2022-12-29T05:38:45;3.72;;;0.40;;
55210;SDS011;41082;52.822;6.666;2022-12-29T05:41:11;4.95;;;0.30;;
55210;SDS011;41082;52.822;6.666;2022-12-29T05:43:36;4.13;;;0.30;;
55210;SDS011;41082;52.822;6.666;2022-12-29T05:46:02;6.45;;;0.32;;
55210;SDS011;41082;52.822;6.666;2022-12-29T05:48:28;3.72;;;0.40;;
55210;SDS011;41082;52.822;6.666;2022-12-29T05:50:54;4.68;;;1.50;;
55210;SDS011;41082;52.822;6.666;2022-12-29T05:53:19;4.30;;;0.80;;
55210;SDS011;41082;52.822;6.666;2022-12-29T05:55:48;4.30;;;0.50;;
55210;SDS011;41082;52.822;6.666;2022-12-29T05:58:15;1.85;;;0.20;;
55210;SDS011;41082;52.822;6.666;2022-12-29T06:00:41;3.63;;;0.30;;
55210;SDS011;41082;52.822;6.666;2022-12-29T06:03:07;2.53;;;0.30;;
55210;SDS011;41082;52.822;6.666;2022-12-29T06:05:32;3.65;;;0.90;;
55210;SDS011;41082;52.822;6.666;2022-12-29T06:07:58;3.30;;;0.35;;
55210;SDS011;41082;52.822;6.666;2022-12-29T06:10:24;4.20;;;0.30;;
55210;SDS011;41082;52.822;6.666;2022-12-29T06:12:49;5.90;;;0.40;;
55210;SDS011;41082;52.822;6.666;2022-12-29T06:15:15;6.20;;;0.20;;
55210;SDS011;41082;52.822;6.666;2022-12-29T06:17:40;5.60;;;0.30;;
55210;SDS011;41082;52.822;6.666;2022-12-29T06:20:06;7.35;;;0.40;;
55210;SDS011;41082;52.822;6.666;2022-12-29T06:22:33;5.75;;;0.35;;
55210;SDS011;41082;52.822;6.666;2022-12-29T06:24:58;4.95;;;0.20;;
55210;SDS011;41082;52.822;6.666;2022-12-29T06:27:24;8.68;;;0.40;;
55210;SDS011;41082;52.822;6.666;2022-12-29T06:29:50;3.92;;;0.32;;
55210;SDS011;41082;52.822;6.666;2022-12-29T06:32:15;5.55;;;0.50;;
55210;SDS011;41082;52.822;6.666;2022-12-29T06:34:41;9.90;;;1.10;;
55210;SDS011;41082;52.822;6.666;2022-12-29T06:37:07;4.60;;;0.30;;
55210;SDS011;41082;52.822;6.666;2022-12-29T06:39:33;5.57;;;0.63;;
55210;SDS011;41082;52.822;6.666;2022-12-29T06:41:58;3.80;;;0.40;;
55210;SDS011;41082;52.822;6.666;2022-12-29T06:44:24;7.53;;;0.50;;
55210;SDS011;41082;52.822;6.666;2022-12-29T06:46:49;6.60;;;0.40;;
55210;SDS011;41082;52.822;6.666;2022-12-29T06:49:15;6.60;;;0.77;;
55210;SDS011;41082;52.822;6.666;2022-12-29T06:51:41;5.22;;;0.45;;
55210;SDS011;41082;52.822;6.666;2022-12-29T06:54:07;8.18;;;0.80;;
55210;SDS011;41082;52.822;6.666;2022-12-29T06:56:33;5.35;;;0.47;;
55210;SDS011;41082;52.822;6.666;2022-12-29T06:58:58;3.67;;;0.32;;
55210;SDS011;41082;52.822;6.666;2022-12-29T07:01:26;4.55;;;0.30;;
55210;SDS011;41082;52.822;6.666;2022-12-29T07:03:51;4.97;;;0.60;;
55210;SDS011;41082;52.822;6.666;2022-12-29T07:06:17;4.00;;;0.40;;
55210;SDS011;41082;52.822;6.666;2022-12-29T07:08:43;7.53;;;0.47;;
55210;SDS011;41082;52.822;6.666;2022-12-29T07:11:08;6.47;;;0.52;;
55210;SDS011;41082;52.822;6.666;2022-12-29T07:13:34;7.78;;;0.43;;
55210;SDS011;41082;52.822;6.666;2022-12-29T07:16:04;6.70;;;0.77;;
55210;SDS011;41082;52.822;6.666;2022-12-29T07:18:34;9.52;;;0.60;;
55210;SDS011;41082;52.822;6.666;2022-12-29T07:21:00;6.78;;;0.50;;
55210;SDS011;41082;52.822;6.666;2022-12-29T07:23:26;7.70;;;0.82;;
55210;SDS011;41082;52.822;6.666;2022-12-29T07:26:11;6.00;;;0.40;;
55210;SDS011;41082;52.822;6.666;2022-12-29T07:28:38;5.07;;;0.30;;
55210;SDS011;41082;52.822;6.666;2022-12-29T07:31:04;5.82;;;0.80;;
55210;SDS011;41082;52.822;6.666;2022-12-29T07:33:31;7.95;;;0.73;;
55210;SDS011;41082;52.822;6.666;2022-12-29T07:35:57;9.90;;;2.30;;
55210;SDS011;41082;52.822;6.666;2022-12-29T07:38:23;9.50;;;0.50;;
55210;SDS011;41082;52.822;6.666;2022-12-29T07:40:49;8.48;;;1.25;;
55210;SDS011;41082;52.822;6.666;2022-12-29T07:43:15;5.60;;;0.60;;
55210;SDS011;41082;52.822;6.666;2022-12-29T07:45:41;12.23;;;1.58;;
55210;SDS011;41082;52.822;6.666;2022-12-29T07:48:06;5.70;;;0.35;;
55210;SDS011;41082;52.822;6.666;2022-12-29T07:50:33;4.95;;;0.65;;
55210;SDS011;41082;52.822;6.666;2022-12-29T07:52:59;7.88;;;0.45;;
55210;SDS011;41082;52.822;6.666;2022-12-29T07:55:25;10.88;;;0.75;;
55210;SDS011;41082;52.822;6.666;2022-12-29T07:57:52;8.73;;;0.60;;
55210;SDS011;41082;52.822;6.666;2022-12-29T08:00:19;9.10;;;0.68;;
55210;SDS011;41082;52.822;6.666;2022-12-29T08:02:45;11.82;;;0.90;;
55210;SDS011;41082;52.822;6.666;2022-12-29T08:05:11;11.52;;;0.93;;
55210;SDS011;41082;52.822;6.666;2022-12-29T08:07:37;8.02;;;0.65;;
55210;SDS011;41082;52.822;6.666;2022-12-29T08:10:03;6.90;;;0.73;;
55210;SDS011;41082;52.822;6.666;2022-12-29T08:12:29;10.85;;;0.70;;
55210;SDS011;41082;52.822;6.666;2022-12-29T08:14:55;6.43;;;0.40;;
55210;SDS011;41082;52.822;6.666;2022-12-29T08:17:20;9.52;;;0.90;;
55210;SDS011;41082;52.822;6.666;2022-12-29T08:19:46;9.45;;;0.82;;
55210;SDS011;41082;52.822;6.666;2022-12-29T08:22:13;9.77;;;1.02;;
55210;SDS011;41082;52.822;6.666;2022-12-29T08:24:39;9.73;;;0.98;;
55210;SDS011;41082;52.822;6.666;2022-12-29T08:27:05;7.95;;;0.70;;
55210;SDS011;41082;52.822;6.666;2022-12-29T08:29:30;12.10;;;0.95;;
55210;SDS011;41082;52.822;6.666;2022-12-29T08:31:56;9.43;;;1.52;;
55210;SDS011;41082;52.822;6.666;2022-12-29T08:34:21;8.35;;;1.15;;
55210;SDS011;41082;52.822;6.666;2022-12-29T08:36:47;12.85;;;1.33;;
55210;SDS011;41082;52.822;6.666;2022-12-29T08:39:13;7.30;;;0.75;;
55210;SDS011;41082;52.822;6.666;2022-12-29T08:41:39;10.05;;;1.17;;
55210;SDS011;41082;52.822;6.666;2022-12-29T08:44:04;9.85;;;1.52;;
55210;SDS011;41082;52.822;6.666;2022-12-29T08:46:30;11.82;;;0.88;;
55210;SDS011;41082;52.822;6.666;2022-12-29T08:48:56;10.73;;;1.27;;
55210;SDS011;41082;52.822;6.666;2022-12-29T08:51:22;9.15;;;0.82;;
55210;SDS011;41082;52.822;6.666;2022-12-29T08:53:48;15.82;;;1.63;;
55210;SDS011;41082;52.822;6.666;2022-12-29T08:56:13;10.20;;;0.77;;
55210;SDS011;41082;52.822;6.666;2022-12-29T08:58:39;10.90;;;0.90;;
55210;SDS011;41082;52.822;6.666;2022-12-29T09:01:05;10.30;;;0.50;;
55210;SDS011;41082;52.822;6.666;2022-12-29T09:03:31;11.18;;;0.60;;
55210;SDS011;41082;52.822;6.666;2022-12-29T09:05:57;12.38;;;1.00;;
55210;SDS011;41082;52.822;6.666;2022-12-29T09:08:22;10.38;;;0.85;;
55210;SDS011;41082;52.822;6.666;2022-12-29T09:10:48;14.73;;;0.68;;
55210;SDS011;41082;52.822;6.666;2022-12-29T09:13:15;8.90;;;0.88;;
55210;SDS011;41082;52.822;6.666;2022-12-29T09:15:41;8.98;;;0.77;;
55210;SDS011;41082;52.822;6.666;2022-12-29T09:18:08;8.55;;;0.50;;
55210;SDS011;41082;52.822;6.666;2022-12-29T09:20:34;7.75;;;0.70;;
55210;SDS011;41082;52.822;6.666;2022-12-29T09:23:00;9.80;;;0.95;;
55210;SDS011;41082;52.822;6.666;2022-12-29T09:25:26;7.45;;;0.57;;
55210;SDS011;41082;52.822;6.666;2022-12-29T09:27:52;5.65;;;0.40;;
55210;SDS011;41082;52.822;6.666;2022-12-29T09:30:19;8.75;;;0.90;;
55210;SDS011;41082;52.822;6.666;2022-12-29T09:32:46;9.05;;;1.00;;
55210;SDS011;41082;52.822;6.666;2022-12-29T09:35:12;7.75;;;0.70;;
55210;SDS011;41082;52.822;6.666;2022-12-29T09:37:39;6.57;;;1.15;;
55210;SDS011;41082;52.822;6.666;2022-12-29T09:40:06;7.22;;;0.60;;
55210;SDS011;41082;52.822;6.666;2022-12-29T09:42:43;7.70;;;0.52;;
55210;SDS011;41082;52.822;6.666;2022-12-29T09:45:24;6.00;;;0.52;;
55210;SDS011;41082;52.822;6.666;2022-12-29T09:48:06;8.95;;;0.98;;
55210;SDS011;41082;52.822;6.666;2022-12-29T09:50:43;7.97;;;0.93;;
55210;SDS011;41082;52.822;6.666;2022-12-29T09:53:24;9.13;;;0.68;;
55210;SDS011;41082;52.822;6.666;2022-12-29T09:55:54;11.75;;;1.25;;
55210;SDS011;41082;52.822;6.666;2022-12-29T09:58:24;7.03;;;0.73;;
55210;SDS011;41082;52.822;6.666;2022-12-29T10:01:05;9.23;;;0.95;;
55210;SDS011;41082;52.822;6.666;2022-12-29T10:03:48;9.43;;;1.00;;
55210;SDS011;41082;52.822;6.666;2022-12-29T10:06:23;9.52;;;0.45;;
55210;SDS011;41082;52.822;6.666;2022-12-29T10:20:23;13.10;;;0.95;;
55210;SDS011;41082;52.822;6.666;2022-12-29T10:25:29;7.38;;;0.73;;
55210;SDS011;41082;52.822;6.666;2022-12-29T10:28:03;6.22;;;0.80;;
55210;SDS011;41082;52.822;6.666;2022-12-29T10:30:35;8.55;;;0.40;;
55210;SDS011;41082;52.822;6.666;2022-12-29T10:33:02;9.48;;;1.20;;
55210;SDS011;41082;52.822;6.666;2022-12-29T10:35:33;8.35;;;0.98;;
55210;SDS011;41082;52.822;6.666;2022-12-29T10:38:23;7.13;;;0.85;;
55210;SDS011;41082;52.822;6.666;2022-12-29T10:41:13;9.13;;;0.73;;
55210;SDS011;41082;52.822;6.666;2022-12-29T10:43:46;10.88;;;0.88;;
55210;SDS011;41082;52.822;6.666;2022-12-29T10:46:16;7.57;;;0.85;;
55210;SDS011;41082;52.822;6.666;2022-12-29T10:48:45;6.93;;;0.82;;
55210;SDS011;41082;52.822;6.666;2022-12-29T10:51:15;7.78;;;1.15;;
55210;SDS011;41082;52.822;6.666;2022-12-29T10:59:23;8.63;;;1.73;;
55210;SDS011;41082;52.822;6.666;2022-12-29T11:07:10;6.95;;;0.68;;
55210;SDS011;41082;52.822;6.666;2022-12-29T11:09:37;9.07;;;0.80;;
55210;SDS011;41082;52.822;6.666;2022-12-29T11:15:01;6.85;;;0.60;;
55210;SDS011;41082;52.822;6.666;2022-12-29T11:17:42;3.92;;;0.40;;
55210;SDS011;41082;52.822;6.666;2022-12-29T11:20:24;5.68;;;0.55;;
55210;SDS011;41082;52.822;6.666;2022-12-29T11:22:59;5.10;;;0.50;;
55210;SDS011;41082;52.822;6.666;2022-12-29T11:25:26;6.53;;;0.75;;
55210;SDS011;41082;52.822;6.666;2022-12-29T11:30:40;6.47;;;0.95;;
55210;SDS011;41082;52.822;6.666;2022-12-29T11:33:08;10.18;;;0.70;;
55210;SDS011;41082;52.822;6.666;2022-12-29T11:35:43;7.32;;;0.40;;
55210;SDS011;41082;52.822;6.666;2022-12-29T11:38:20;6.80;;;0.50;;
55210;SDS011;41082;52.822;6.666;2022-12-29T11:40:47;3.85;;;0.73;;
55210;SDS011;41082;52.822;6.666;2022-12-29T11:43:46;10.23;;;1.05;;
55210;SDS011;41082;52.822;6.666;2022-12-29T11:46:12;7.30;;;0.60;;
55210;SDS011;41082;52.822;6.666;2022-12-29T11:48:41;8.90;;;0.70;;
55210;SDS011;41082;52.822;6.666;2022-12-29T11:51:08;4.78;;;0.60;;
55210;SDS011;41082;52.822;6.666;2022-12-29T11:53:39;9.48;;;0.93;;
55210;SDS011;41082;52.822;6.666;2022-12-29T11:56:13;7.65;;;0.93;;
55210;SDS011;41082;52.822;6.666;2022-12-29T11:58:42;10.43;;;0.80;;
55210;SDS011;41082;52.822;6.666;2022-12-29T12:01:19;9.45;;;0.60;;
55210;SDS011;41082;52.822;6.666;2022-12-29T12:04:06;10.45;;;1.13;;
55210;SDS011;41082;52.822;6.666;2022-12-29T12:06:42;9.50;;;0.90;;
55210;SDS011;41082;52.822;6.666;2022-12-29T12:09:23;9.55;;;1.63;;
55210;SDS011;41082;52.822;6.666;2022-12-29T12:11:54;8.85;;;0.63;;
55210;SDS011;41082;52.822;6.666;2022-12-29T12:17:01;11.57;;;1.33;;
55210;SDS011;41082;52.822;6.666;2022-12-29T12:19:36;12.35;;;1.20;;
55210;SDS011;41082;52.822;6.666;2022-12-29T12:22:20;13.68;;;0.77;;
55210;SDS011;41082;52.822;6.666;2022-12-29T12:27:38;12.65;;;1.00;;
55210;SDS011;41082;52.822;6.666;2022-12-29T12:30:22;10.85;;;2.05;;
55210;SDS011;41082;52.822;6.666;2022-12-29T12:33:00;8.40;;;0.80;;
55210;SDS011;41082;52.822;6.666;2022-12-29T12:38:39;15.85;;;1.30;;
55210;SDS011;41082;52.822;6.666;2022-12-29T12:50:09;16.02;;;1.67;;
55210;SDS011;41082;52.822;6.666;2022-12-29T12:53:13;13.98;;;1.38;;
55210;SDS011;41082;52.822;6.666;2022-12-29T12:56:15;13.60;;;1.13;;
55210;SDS011;41082;52.822;6.666;2022-12-29T13:01:54;12.82;;;1.40;;
55210;SDS011;41082;52.822;6.666;2022-12-29T13:18:13;10.88;;;0.93;;
55210;SDS011;41082;52.822;6.666;2022-12-29T13:20:46;11.43;;;1.83;;
55210;SDS011;41082;52.822;6.666;2022-12-29T13:23:22;11.13;;;0.98;;
55210;SDS011;41082;52.822;6.666;2022-12-29T13:28:30;15.23;;;1.15;;
55210;SDS011;41082;52.822;6.666;2022-12-29T13:37:03;11.63;;;1.17;;
55210;SDS011;41082;52.822;6.666;2022-12-29T13:39:46;14.00;;;1.60;;
55210;SDS011;41082;52.822;6.666;2022-12-29T13:42:16;8.38;;;0.90;;
55210;SDS011;41082;52.822;6.666;2022-12-29T13:44:45;18.05;;;0.95;;
55210;SDS011;41082;52.822;6.666;2022-12-29T13:47:39;20.45;;;2.35;;
55210;SDS011;41082;52.822;6.666;2022-12-29T13:50:14;13.45;;;1.50;;
55210;SDS011;41082;52.822;6.666;2022-12-29T13:52:44;11.70;;;1.00;;
55210;SDS011;41082;52.822;6.666;2022-12-29T14:00:49;12.73;;;1.60;;
55210;SDS011;41082;52.822;6.666;2022-12-29T14:08:44;14.90;;;1.45;;
55210;SDS011;41082;52.822;6.666;2022-12-29T14:11:10;10.40;;;1.30;;
55210;SDS011;41082;52.822;6.666;2022-12-29T14:13:39;17.92;;;1.67;;
55210;SDS011;41082;52.822;6.666;2022-12-29T14:16:07;10.43;;;0.80;;
55210;SDS011;41082;52.822;6.666;2022-12-29T14:18:49;6.97;;;1.35;;
55210;SDS011;41082;52.822;6.666;2022-12-29T14:23:41;19.38;;;2.10;;
55210;SDS011;41082;52.822;6.666;2022-12-29T14:26:10;11.15;;;1.35;;
55210;SDS011;41082;52.822;6.666;2022-12-29T14:28:39;14.02;;;1.45;;
55210;SDS011;41082;52.822;6.666;2022-12-29T14:36:35;12.40;;;1.52;;
55210;SDS011;41082;52.822;6.666;2022-12-29T14:39:02;12.52;;;1.40;;
55210;SDS011;41082;52.822;6.666;2022-12-29T14:41:35;11.20;;;1.52;;
55210;SDS011;41082;52.822;6.666;2022-12-29T14:49:21;10.60;;;1.08;;
55210;SDS011;41082;52.822;6.666;2022-12-29T14:51:52;12.07;;;1.10;;
55210;SDS011;41082;52.822;6.666;2022-12-29T14:57:07;10.82;;;1.55;;
55210;SDS011;41082;52.822;6.666;2022-12-29T14:59:39;13.68;;;2.03;;
55210;SDS011;41082;52.822;6.666;2022-12-29T15:02:11;10.85;;;1.45;;
55210;SDS011;41082;52.822;6.666;2022-12-29T15:04:41;9.93;;;0.85;;
55210;SDS011;41082;52.822;6.666;2022-12-29T15:07:09;10.93;;;1.48;;
55210;SDS011;41082;52.822;6.666;2022-12-29T15:14:58;10.98;;;1.33;;
55210;SDS011;41082;52.822;6.666;2022-12-29T15:17:31;15.55;;;0.77;;
55210;SDS011;41082;52.822;6.666;2022-12-29T15:20:00;10.38;;;1.02;;
55210;SDS011;41082;52.822;6.666;2022-12-29T15:22:43;14.15;;;1.65;;
55210;SDS011;41082;52.822;6.666;2022-12-29T15:25:14;11.57;;;1.10;;
55210;SDS011;41082;52.822;6.666;2022-12-29T15:27:41;10.35;;;0.93;;
55210;SDS011;41082;52.822;6.666;2022-12-29T15:30:11;14.65;;;1.55;;
55210;SDS011;41082;52.822;6.666;2022-12-29T15:32:45;11.35;;;1.42;;
55210;SDS011;41082;52.822;6.666;2022-12-29T15:35:25;14.35;;;1.63;;
55210;SDS011;41082;52.822;6.666;2022-12-29T15:37:52;10.32;;;1.30;;
55210;SDS011;41082;52.822;6.666;2022-12-29T15:40:35;16.98;;;1.63;;
55210;SDS011;41082;52.822;6.666;2022-12-29T15:45:42;9.37;;;1.20;;
55210;SDS011;41082;52.822;6.666;2022-12-29T15:48:13;13.63;;;1.35;;
55210;SDS011;41082;52.822;6.666;2022-12-29T15:50:44;11.95;;;1.77;;
55210;SDS011;41082;52.822;6.666;2022-12-29T15:53:11;10.40;;;1.05;;
55210;SDS011;41082;52.822;6.666;2022-12-29T15:55:53;12.25;;;1.45;;
55210;SDS011;41082;52.822;6.666;2022-12-29T15:58:23;13.52;;;1.38;;
55210;SDS011;41082;52.822;6.666;2022-12-29T16:00:55;13.15;;;0.95;;
55210;SDS011;41082;52.822;6.666;2022-12-29T16:03:22;15.98;;;2.00;;
55210;SDS011;41082;52.822;6.666;2022-12-29T16:05:52;15.95;;;1.73;;
55210;SDS011;41082;52.822;6.666;2022-12-29T16:08:34;10.80;;;1.08;;
55210;SDS011;41082;52.822;6.666;2022-12-29T16:11:02;10.63;;;1.10;;
55210;SDS011;41082;52.822;6.666;2022-12-29T16:13:45;7.22;;;1.00;;
55210;SDS011;41082;52.822;6.666;2022-12-29T16:18:44;5.07;;;1.75;;
55210;SDS011;41082;52.822;6.666;2022-12-29T16:21:26;4.32;;;0.60;;
55210;SDS011;41082;52.822;6.666;2022-12-29T16:23:55;9.32;;;1.02;;
55210;SDS011;41082;52.822;6.666;2022-12-29T16:26:26;8.07;;;0.85;;
55210;SDS011;41082;52.822;6.666;2022-12-29T16:28:54;8.27;;;0.98;;
55210;SDS011;41082;52.822;6.666;2022-12-29T16:31:24;7.80;;;0.82;;
55210;SDS011;41082;52.822;6.666;2022-12-29T16:34:10;7.13;;;0.80;;
55210;SDS011;41082;52.822;6.666;2022-12-29T16:36:51;8.63;;;0.85;;
55210;SDS011;41082;52.822;6.666;2022-12-29T16:41:58;8.63;;;0.90;;
55210;SDS011;41082;52.822;6.666;2022-12-29T16:44:28;5.95;;;1.30;;
55210;SDS011;41082;52.822;6.666;2022-12-29T16:49:36;7.15;;;0.80;;
55210;SDS011;41082;52.822;6.666;2022-12-29T16:55:00;4.35;;;0.77;;
55210;SDS011;41082;52.822;6.666;2022-12-29T16:57:33;10.73;;;1.65;;
55210;SDS011;41082;52.822;6.666;2022-12-29T17:00:04;5.22;;;0.80;;
55210;SDS011;41082;52.822;6.666;2022-12-29T17:02:42;6.47;;;0.70;;
55210;SDS011;41082;52.822;6.666;2022-12-29T17:05:13;8.55;;;1.52;;
55210;SDS011;41082;52.822;6.666;2022-12-29T17:07:40;7.00;;;1.40;;
55210;SDS011;41082;52.822;6.666;2022-12-29T17:10:05;10.20;;;1.00;;
55210;SDS011;41082;52.822;6.666;2022-12-29T17:12:33;7.25;;;0.93;;
55210;SDS011;41082;52.822;6.666;2022-12-29T17:15:04;6.20;;;0.88;;
55210;SDS011;41082;52.822;6.666;2022-12-29T17:20:09;4.68;;;0.80;;
55210;SDS011;41082;52.822;6.666;2022-12-29T17:22:40;7.75;;;1.30;;
55210;SDS011;41082;52.822;6.666;2022-12-29T17:25:06;5.70;;;1.38;;
55210;SDS011;41082;52.822;6.666;2022-12-29T17:27:36;3.90;;;0.57;;
55210;SDS011;41082;52.822;6.666;2022-12-29T17:30:10;9.02;;;1.08;;
55210;SDS011;41082;52.822;6.666;2022-12-29T17:32:38;6.25;;;1.17;;
55210;SDS011;41082;52.822;6.666;2022-12-29T17:35:17;5.50;;;1.75;;
55210;SDS011;41082;52.822;6.666;2022-12-29T17:37:44;12.32;;;1.90;;
55210;SDS011;41082;52.822;6.666;2022-12-29T17:40:13;9.48;;;2.55;;
55210;SDS011;41082;52.822;6.666;2022-12-29T17:42:42;6.47;;;1.67;;
55210;SDS011;41082;52.822;6.666;2022-12-29T17:45:17;8.32;;;2.13;;